OIBS  Sirri Island Airport

Add Bookmark

Iran

Status IATA
Operational SXI
Latitude Longitude
25° 54' 32" N 54° 32' 21" E
25.908899 54.539398
Local (DST + 5) UTC (GMT + 4)
Oct 20, 2014 11:38 Oct 20, 2014 08:08
Sunrise-Sunset Local UTC
Begin Civil Twilight 05:28 01:58
Sunrise 05:52 02:22
Sunset 05:20 13:50
End Civil Twilight 05:44 14:14

Current Weather

METAR Observed VFR
OIBS 200500Z 32010KT CAVOK 31/21 Q1012 Mon, Oct 20, 2014 @ 05:00 UTC
(3 Hours, 8 Minutes ago)
Visual Flight Rules
Wind Visibility Clouds Conditions
320° at 10 knots (19 kph) 10 km or more
  • Clear skies
  • No significant weather
Temperatures Readings Precipitation
Current Temp 31°C (88°F)
Dewpoint 21°C (70°F)
Heat Index 34°C (93°F)
Humidity 55%
Altimeter 29.88"Hg
Sea Level Pressure 1012mb
Field Elevation 45.93'
None Recorded

Additional weather within a 92.6km radius of OIBS

Map ICAO Location
OIBA 49.4km E (094°)
OIBL 74.8km N (022°)
OIBK 88.3km N (321°)

24 Hour Weather History

Loading
-

24 Hour Weather Graphs

Loading
-

CheckWX.com is intended as a tool to help pilots better visualize weather data. It is not intended as a substitute for an official weather briefing obtained from a Flight Service Station. CheckWX.com does not meet the FAA requirements for an official pre-flight weather briefing. Therefore, it's important that pilots still call and obtain an official FSS pre-flight weather briefing.